createdAt,value
2022-12-05T00:01:36.157Z,31.75
2022-12-05T00:04:06.621Z,31.25
2022-12-05T00:06:34.294Z,27.80
2022-12-05T00:09:01.173Z,32.13
2022-12-05T00:11:30.146Z,34.22
2022-12-05T00:14:00.014Z,35.25
2022-12-05T00:16:29.828Z,36.10
2022-12-05T00:18:59.614Z,36.85
2022-12-05T00:21:29.343Z,32.47
2022-12-05T00:23:57.989Z,31.95
2022-12-05T00:26:25.036Z,31.80
2022-12-05T00:28:52.075Z,31.05
2022-12-05T00:31:21.860Z,31.80
2022-12-05T00:33:49.433Z,30.65
2022-12-05T00:36:27.637Z,32.17
2022-12-05T00:38:55.203Z,34.55
2022-12-05T00:41:25.370Z,30.35
2022-12-05T00:43:52.374Z,30.33
2022-12-05T00:46:24.752Z,33.90
2022-12-05T00:48:53.180Z,34.10
2022-12-05T00:51:28.151Z,32.83
2022-12-05T00:53:57.654Z,33.05
2022-12-05T00:56:25.633Z,31.23
2022-12-05T00:58:54.255Z,27.75
2022-12-05T01:01:24.363Z,36.65
2022-12-05T01:03:54.094Z,30.30
2022-12-05T01:06:20.995Z,28.92
2022-12-05T01:08:47.555Z,28.50
2022-12-05T01:11:18.936Z,28.10
2022-12-05T01:16:24.071Z,29.27
2022-12-05T01:18:51.189Z,29.02
2022-12-05T01:21:18.234Z,32.15
2022-12-05T01:23:44.774Z,28.25
2022-12-05T01:26:13.007Z,29.30
2022-12-05T01:28:40.435Z,29.17
2022-12-05T01:31:10.137Z,30.08
2022-12-05T01:33:36.652Z,26.38
2022-12-05T01:36:03.928Z,28.10
2022-12-05T01:38:30.476Z,24.95
2022-12-05T01:41:02.917Z,29.20
2022-12-05T01:43:29.755Z,28.63
2022-12-05T01:45:56.359Z,26.13
2022-12-05T01:48:29.585Z,26.27
2022-12-05T01:51:00.757Z,27.70
2022-12-05T01:53:29.407Z,25.40
2022-12-05T01:55:56.953Z,29.30
2022-12-05T01:58:28.274Z,24.35
2022-12-05T02:00:54.721Z,22.17
2022-12-05T02:03:22.041Z,22.65
2022-12-05T02:05:51.395Z,24.17
2022-12-05T02:08:18.538Z,24.80
2022-12-05T02:10:51.919Z,26.13
2022-12-05T02:13:42.995Z,20.98
2022-12-05T02:16:18.605Z,20.77
2022-12-05T02:19:15.239Z,18.58
2022-12-05T02:22:11.958Z,22.25
2022-12-05T02:25:01.611Z,20.05
2022-12-05T02:27:57.369Z,23.15
2022-12-05T02:30:25.236Z,16.33
2022-12-05T02:33:31.590Z,16.23
2022-12-05T02:36:04.078Z,16.75
2022-12-05T02:38:55.121Z,18.20
2022-12-05T02:41:36.750Z,18.45
2022-12-05T02:46:40.916Z,18.08
2022-12-05T02:49:16.301Z,18.90
2022-12-05T02:51:46.542Z,18.73
2022-12-05T02:54:19.500Z,21.35
2022-12-05T02:56:47.369Z,17.95
2022-12-05T02:59:17.320Z,18.73
2022-12-05T03:01:49.694Z,17.50
2022-12-05T03:04:19.071Z,16.65
2022-12-05T03:07:00.117Z,19.73
2022-12-05T03:09:35.500Z,15.18
2022-12-05T03:12:17.259Z,19.05
2022-12-05T03:15:01.194Z,17.60
2022-12-05T03:17:34.598Z,16.77
2022-12-05T03:20:11.523Z,16.50
2022-12-05T03:22:44.496Z,17.67
2022-12-05T03:25:13.936Z,15.70
2022-12-05T03:27:50.904Z,17.77
2022-12-05T03:30:20.111Z,15.60
2022-12-05T03:33:01.824Z,13.68
2022-12-05T03:35:49.221Z,15.82
2022-12-05T03:38:47.107Z,13.73
2022-12-05T03:41:31.066Z,14.45
2022-12-05T03:44:05.697Z,17.77
2022-12-05T03:46:43.981Z,13.05
2022-12-05T03:49:34.177Z,12.60
2022-12-05T03:52:15.963Z,16.20
2022-12-05T03:57:17.815Z,17.13
2022-12-05T03:59:50.102Z,14.07
2022-12-05T04:02:27.143Z,13.63
2022-12-05T04:04:59.614Z,15.57
2022-12-05T04:07:30.137Z,15.02
2022-12-05T04:10:00.727Z,12.80
2022-12-05T04:12:31.239Z,16.27
2022-12-05T04:15:10.130Z,14.73
2022-12-05T04:18:01.506Z,15.43
2022-12-05T04:20:53.753Z,15.52
2022-12-05T04:23:20.807Z,15.55
2022-12-05T04:26:21.249Z,16.27
2022-12-05T04:29:01.115Z,14.82
2022-12-05T04:31:42.452Z,16.58
2022-12-05T04:34:14.332Z,15.52
2022-12-05T04:36:55.840Z,15.25
2022-12-05T04:42:10.708Z,15.85
2022-12-05T04:44:43.525Z,17.48
2022-12-05T04:47:12.196Z,17.30
2022-12-05T04:49:42.780Z,16.88
2022-12-05T04:52:12.113Z,16.17
2022-12-05T04:54:44.579Z,15.45
2022-12-05T04:57:41.657Z,17.08
2022-12-05T05:00:08.915Z,16.48
2022-12-05T05:02:45.068Z,17.63
2022-12-05T05:05:14.391Z,18.15
2022-12-05T05:07:46.496Z,19.23
2022-12-05T05:10:16.271Z,17.88
2022-12-05T05:12:42.764Z,15.98
2022-12-05T05:15:09.547Z,15.27
2022-12-05T05:17:35.949Z,14.80
2022-12-05T05:20:22.681Z,16.90
2022-12-05T05:22:50.694Z,19.27
2022-12-05T05:25:17.447Z,14.57
2022-12-05T05:27:47.936Z,16.85
2022-12-05T05:30:14.527Z,18.20
2022-12-05T05:32:40.905Z,16.38
2022-12-05T05:35:07.698Z,15.50
2022-12-05T05:37:34.107Z,17.60
2022-12-05T05:40:02.127Z,16.98
2022-12-05T05:42:31.460Z,17.33
2022-12-05T05:44:57.898Z,16.70
2022-12-05T05:47:24.310Z,15.30
2022-12-05T05:49:50.741Z,19.10
2022-12-05T05:52:17.124Z,14.82
2022-12-05T05:54:43.578Z,17.02
2022-12-05T05:57:09.991Z,18.98
2022-12-05T05:59:36.477Z,19.98
2022-12-05T06:02:02.872Z,17.45
2022-12-05T06:04:29.358Z,18.48
2022-12-05T06:06:55.765Z,19.00
2022-12-05T06:09:22.185Z,17.55
2022-12-05T06:11:48.627Z,16.65
2022-12-05T06:14:15.083Z,19.50
2022-12-05T06:16:41.597Z,19.95
2022-12-05T06:19:08.015Z,19.40
2022-12-05T06:21:34.443Z,20.80
2022-12-05T06:24:00.887Z,19.90
2022-12-05T06:26:27.314Z,24.35
2022-12-05T06:28:53.818Z,20.35
2022-12-05T06:31:23.123Z,23.70
2022-12-05T06:33:49.625Z,26.23
2022-12-05T06:36:18.611Z,22.15
2022-12-05T06:38:45.147Z,23.02
2022-12-05T06:41:15.673Z,24.13
2022-12-05T06:43:43.108Z,22.33
2022-12-05T06:46:11.773Z,21.83
2022-12-05T06:48:39.030Z,21.35
2022-12-05T06:51:07.007Z,26.48
2022-12-05T06:53:33.527Z,22.63
2022-12-05T06:56:02.503Z,24.20
2022-12-05T06:58:31.766Z,21.25
2022-12-05T07:01:17.269Z,25.60
2022-12-05T07:03:48.817Z,22.95
2022-12-05T07:08:42.193Z,24.63
2022-12-05T07:11:11.026Z,22.30
2022-12-05T07:13:37.556Z,23.90
2022-12-05T07:16:07.003Z,23.02
2022-12-05T07:18:33.970Z,22.08
2022-12-05T07:21:12.058Z,24.48
2022-12-05T07:23:40.582Z,22.40
2022-12-05T07:26:08.836Z,39.47
2022-12-05T07:28:36.096Z,25.58
2022-12-05T07:31:04.837Z,26.05
2022-12-05T07:33:31.503Z,26.52
2022-12-05T07:36:07.565Z,28.23
2022-12-05T07:38:34.148Z,24.90
2022-12-05T07:41:09.030Z,26.70
2022-12-05T07:43:39.914Z,27.40
2022-12-05T07:46:11.774Z,24.65
2022-12-05T07:48:38.891Z,25.27
2022-12-05T07:51:07.424Z,24.45
2022-12-05T07:53:34.675Z,25.50
2022-12-05T07:56:06.675Z,24.65
2022-12-05T07:58:37.111Z,28.85
2022-12-05T08:01:24.237Z,31.45
2022-12-05T08:03:53.463Z,34.40
2022-12-05T08:06:25.248Z,29.77
2022-12-05T08:08:52.018Z,26.70
2022-12-05T08:11:21.382Z,28.23
2022-12-05T08:13:48.170Z,25.50
2022-12-05T08:16:17.116Z,27.48
2022-12-05T08:18:46.003Z,26.98
2022-12-05T08:21:15.239Z,26.30
2022-12-05T08:23:42.180Z,27.02
2022-12-05T08:26:17.863Z,28.15
2022-12-05T08:28:44.764Z,32.10
2022-12-05T08:31:16.542Z,27.00
2022-12-05T08:33:43.964Z,30.60
2022-12-05T08:36:13.291Z,32.55
2022-12-05T08:38:39.784Z,28.08
2022-12-05T08:41:09.015Z,27.45
2022-12-05T08:43:36.631Z,26.48
2022-12-05T08:46:03.752Z,28.20
2022-12-05T08:48:32.497Z,36.58
2022-12-05T08:50:59.864Z,39.10
2022-12-05T08:53:26.987Z,29.73
2022-12-05T08:55:53.391Z,33.50
2022-12-05T08:58:19.783Z,35.22
2022-12-05T09:00:46.346Z,29.90
2022-12-05T09:03:13.053Z,30.10
2022-12-05T09:05:39.759Z,30.20
2022-12-05T09:08:06.369Z,28.83
2022-12-05T09:10:33.077Z,32.95
2022-12-05T09:12:59.543Z,33.65
2022-12-05T09:15:26.024Z,38.78
2022-12-05T09:17:52.607Z,40.70
2022-12-05T09:20:19.168Z,32.42
2022-12-05T09:22:45.590Z,31.42
2022-12-05T09:25:12.331Z,29.50
2022-12-05T09:27:38.864Z,26.63
2022-12-05T09:30:10.025Z,30.95
2022-12-05T09:32:36.504Z,26.75
2022-12-05T09:35:03.334Z,25.23
2022-12-05T09:37:44.445Z,27.27
2022-12-05T09:40:19.097Z,30.48
2022-12-05T09:43:04.464Z,21.55
2022-12-05T09:45:39.560Z,28.30
2022-12-05T09:48:16.310Z,27.83
2022-12-05T09:50:55.438Z,23.63
2022-12-05T09:53:32.429Z,25.83
2022-12-05T09:56:13.164Z,29.50
2022-12-05T09:58:46.271Z,27.27
2022-12-05T10:01:31.535Z,28.65
2022-12-05T10:04:39.224Z,32.83
2022-12-05T10:07:08.788Z,33.53
2022-12-05T10:10:05.919Z,33.75
2022-12-05T10:12:35.332Z,31.50
2022-12-05T10:15:17.001Z,29.15
2022-12-05T10:17:53.144Z,28.05
2022-12-05T10:20:28.713Z,29.63
2022-12-05T10:23:01.370Z,27.58
2022-12-05T10:25:31.501Z,26.33
2022-12-05T10:28:04.231Z,28.50
2022-12-05T10:30:33.551Z,26.02
2022-12-05T10:33:12.024Z,30.70
2022-12-05T10:35:41.050Z,32.35
2022-12-05T10:38:24.306Z,28.75
2022-12-05T10:40:58.223Z,29.85
2022-12-05T10:43:32.619Z,33.97
2022-12-05T10:46:00.254Z,30.02
2022-12-05T10:48:26.984Z,32.22
2022-12-05T10:50:55.855Z,37.63
2022-12-05T10:53:36.911Z,29.60
2022-12-05T10:58:58.024Z,35.92
2022-12-05T11:01:26.211Z,28.20
2022-12-05T11:03:58.845Z,25.90
2022-12-05T11:06:28.001Z,35.28
2022-12-05T11:09:13.766Z,29.50
2022-12-05T11:11:40.361Z,31.23
2022-12-05T11:14:23.540Z,28.10
2022-12-05T11:16:58.891Z,27.95
2022-12-05T11:19:39.063Z,35.22
2022-12-05T11:22:08.079Z,30.45
2022-12-05T11:24:37.772Z,33.63
2022-12-05T11:27:16.462Z,27.15
2022-12-05T11:29:53.132Z,27.30
2022-12-05T11:32:22.484Z,26.80
2022-12-05T11:35:13.786Z,30.58
2022-12-05T11:37:54.523Z,24.52
2022-12-05T11:40:33.978Z,28.75
2022-12-05T11:43:16.424Z,27.05
2022-12-05T11:46:09.175Z,25.58
2022-12-05T11:48:44.467Z,25.90
2022-12-05T11:51:24.824Z,21.55
2022-12-05T11:54:12.555Z,22.70
2022-12-05T11:56:43.661Z,21.08
2022-12-05T11:59:45.488Z,22.08
2022-12-05T12:05:54.974Z,20.40
2022-12-05T12:08:34.764Z,21.38
2022-12-05T12:11:39.930Z,22.10
2022-12-05T12:14:43.290Z,23.58
2022-12-05T12:17:34.335Z,21.98
2022-12-05T12:20:12.618Z,27.23
2022-12-05T12:22:42.766Z,31.52
2022-12-05T12:25:24.355Z,30.67
2022-12-05T12:30:52.303Z,28.50
2022-12-05T12:33:38.650Z,24.27
2022-12-05T12:36:16.815Z,30.30
2022-12-05T12:39:19.309Z,27.23
2022-12-05T12:41:53.026Z,28.77
2022-12-05T12:44:40.807Z,26.13
2022-12-05T12:47:33.963Z,27.15
2022-12-05T12:50:07.768Z,20.95
2022-12-05T12:53:05.142Z,21.13
2022-12-05T12:55:54.191Z,23.98
2022-12-05T12:58:42.735Z,25.35
2022-12-05T13:01:33.968Z,21.80
2022-12-05T13:04:13.368Z,24.23
2022-12-05T13:06:42.827Z,25.33
2022-12-05T13:09:27.645Z,23.30
2022-12-05T13:11:56.435Z,22.83
2022-12-05T13:14:27.346Z,29.60
2022-12-05T13:16:55.966Z,21.88
2022-12-05T13:19:37.350Z,25.67
2022-12-05T13:22:05.719Z,24.35
2022-12-05T13:24:32.373Z,24.13
2022-12-05T13:27:01.800Z,25.70
2022-12-05T13:29:40.539Z,26.10
2022-12-05T13:32:25.544Z,26.38
2022-12-05T13:34:52.960Z,31.45
2022-12-05T13:37:47.437Z,26.58
2022-12-05T13:40:52.916Z,21.85
2022-12-05T13:43:22.687Z,19.67
2022-12-05T13:46:02.030Z,24.58
2022-12-05T13:48:35.005Z,27.85
2022-12-05T13:51:03.847Z,30.92
2022-12-05T13:53:45.273Z,28.88
2022-12-05T13:56:14.609Z,30.48
2022-12-05T13:58:41.001Z,32.80
2022-12-05T14:01:33.958Z,33.15
2022-12-05T14:04:04.807Z,35.58
2022-12-05T14:06:40.153Z,36.55
2022-12-05T14:09:18.963Z,32.38
2022-12-05T14:12:15.252Z,33.75
2022-12-05T14:14:57.058Z,35.17
2022-12-05T14:17:32.207Z,29.23
2022-12-05T14:20:19.019Z,37.58
2022-12-05T14:22:50.719Z,31.27
2022-12-05T14:25:54.707Z,29.48
2022-12-05T14:28:48.934Z,37.03
2022-12-05T14:31:41.731Z,34.20
2022-12-05T14:34:15.939Z,31.05
2022-12-05T14:36:56.000Z,35.13
2022-12-05T14:39:32.498Z,35.95
2022-12-05T14:42:06.831Z,33.85
2022-12-05T14:44:33.464Z,32.28
2022-12-05T14:47:06.616Z,41.22
2022-12-05T14:50:09.940Z,34.42
2022-12-05T14:52:38.655Z,33.70
2022-12-05T14:55:22.110Z,35.67
2022-12-05T14:57:52.130Z,38.05
2022-12-05T15:00:22.772Z,37.88
2022-12-05T15:02:52.904Z,32.50
2022-12-05T15:05:27.931Z,34.50
2022-12-05T15:07:56.788Z,35.50
2022-12-05T15:10:28.308Z,36.42
2022-12-05T15:15:52.295Z,34.63
2022-12-05T15:18:40.113Z,32.08
2022-12-05T15:21:13.814Z,31.98
2022-12-05T15:23:49.023Z,35.65
2022-12-05T15:29:29.678Z,28.80
2022-12-05T15:31:58.986Z,35.70
2022-12-05T15:34:34.594Z,32.65
2022-12-05T15:37:10.708Z,37.33
2022-12-05T15:39:55.332Z,30.38
2022-12-05T15:42:36.048Z,32.40
2022-12-05T15:45:17.415Z,31.53
2022-12-05T15:47:45.265Z,33.10
2022-12-05T15:50:15.819Z,34.97
2022-12-05T15:52:55.624Z,32.40
2022-12-05T15:55:28.106Z,30.95
2022-12-05T15:58:24.444Z,28.98
2022-12-05T16:01:14.220Z,29.42
2022-12-05T16:04:03.514Z,28.25
2022-12-05T16:06:33.591Z,29.80
2022-12-05T16:09:07.559Z,27.60
2022-12-05T16:11:37.666Z,31.40
2022-12-05T16:14:07.120Z,31.00
2022-12-05T16:16:37.019Z,52.00
2022-12-05T16:19:15.706Z,33.15
2022-12-05T16:21:45.726Z,33.38
2022-12-05T16:24:20.035Z,30.63
2022-12-05T16:26:58.628Z,28.48
2022-12-05T16:29:30.728Z,49.40
2022-12-05T16:31:59.313Z,43.13
2022-12-05T16:34:27.577Z,43.30
2022-12-05T16:36:56.047Z,38.25
2022-12-05T16:39:24.707Z,49.70
2022-12-05T16:41:51.992Z,45.33
2022-12-05T16:44:27.763Z,35.42
2022-12-05T16:46:55.677Z,35.60
2022-12-05T16:49:33.310Z,31.27
2022-12-05T16:52:14.259Z,30.55
2022-12-05T16:54:42.624Z,31.55
2022-12-05T16:57:11.919Z,29.83
2022-12-05T16:59:39.364Z,37.65
2022-12-05T17:02:12.746Z,56.03
2022-12-05T17:04:39.365Z,55.45
2022-12-05T17:07:05.898Z,40.95
2022-12-05T17:09:32.512Z,32.33
2022-12-05T17:12:12.734Z,32.70
2022-12-05T17:14:39.236Z,32.92
2022-12-05T17:17:12.488Z,34.67
2022-12-05T17:19:38.925Z,34.20
2022-12-05T17:22:06.356Z,34.95
2022-12-05T17:24:32.808Z,48.70
2022-12-05T17:26:59.224Z,61.05
2022-12-05T17:29:25.645Z,55.03
2022-12-05T17:31:52.371Z,91.40
2022-12-05T17:34:18.906Z,60.72
2022-12-05T17:36:45.669Z,52.15
2022-12-05T17:39:12.305Z,37.65
2022-12-05T17:41:38.921Z,38.20
2022-12-05T17:44:05.907Z,52.50
2022-12-05T17:46:32.534Z,59.85
2022-12-05T17:48:59.146Z,69.43
2022-12-05T17:51:26.400Z,49.25
2022-12-05T17:53:54.056Z,56.30
2022-12-05T17:56:21.219Z,52.10
2022-12-05T17:58:47.843Z,45.13
2022-12-05T18:01:16.716Z,177.13
2022-12-05T18:03:43.439Z,148.68
2022-12-05T18:06:09.980Z,117.90
2022-12-05T18:08:39.709Z,85.80
2022-12-05T18:11:07.013Z,46.35
2022-12-05T18:13:34.348Z,99.88
2022-12-05T18:16:01.868Z,163.60
2022-12-05T18:18:29.492Z,58.88
2022-12-05T18:21:16.174Z,65.55
2022-12-05T18:23:42.677Z,57.85
2022-12-05T18:26:10.345Z,48.13
2022-12-05T18:28:38.457Z,38.60
2022-12-05T18:31:11.626Z,32.28
2022-12-05T18:33:39.379Z,36.80
2022-12-05T18:36:08.065Z,27.88
2022-12-05T18:38:34.979Z,33.78
2022-12-05T18:41:02.951Z,37.75
2022-12-05T18:43:29.925Z,38.80
2022-12-05T18:46:00.896Z,31.55
2022-12-05T18:48:39.841Z,37.35
2022-12-05T18:51:12.299Z,34.85
2022-12-05T18:53:39.353Z,35.03
2022-12-05T18:56:23.387Z,36.03
2022-12-05T18:58:57.684Z,33.85
2022-12-05T19:01:25.440Z,35.50
2022-12-05T19:03:52.029Z,31.65
2022-12-05T19:06:21.173Z,32.28
2022-12-05T19:08:48.160Z,33.33
2022-12-05T19:11:16.575Z,30.20
2022-12-05T19:13:43.527Z,41.05
2022-12-05T19:16:16.856Z,39.17
2022-12-05T19:18:43.689Z,47.58
2022-12-05T19:21:10.994Z,53.97
2022-12-05T19:23:37.441Z,37.15
2022-12-05T19:26:06.527Z,32.17
2022-12-05T19:28:34.229Z,33.88
2022-12-05T19:31:07.049Z,35.67
2022-12-05T19:33:43.232Z,32.80
2022-12-05T19:36:36.724Z,31.02
2022-12-05T19:39:10.260Z,60.47
2022-12-05T19:41:37.063Z,79.55
2022-12-05T19:44:03.877Z,134.80
2022-12-05T19:46:31.099Z,92.72
2022-12-05T19:48:59.871Z,97.68
2022-12-05T19:51:26.722Z,61.47
2022-12-05T19:53:53.782Z,48.53
2022-12-05T19:56:25.106Z,44.53
2022-12-05T19:58:52.659Z,29.73
2022-12-05T20:01:33.823Z,35.40
2022-12-05T20:04:12.377Z,30.65
2022-12-05T20:06:41.305Z,29.90
2022-12-05T20:09:09.211Z,29.85
2022-12-05T20:11:39.087Z,26.67
2022-12-05T20:14:06.041Z,32.53
2022-12-05T20:16:33.713Z,30.52
2022-12-05T20:19:00.414Z,28.92
2022-12-05T20:21:29.371Z,28.35
2022-12-05T20:23:57.750Z,29.08
2022-12-05T20:26:27.172Z,31.48
2022-12-05T20:28:56.556Z,34.25
2022-12-05T20:31:26.403Z,35.58
2022-12-05T20:33:54.163Z,32.72
2022-12-05T20:36:23.819Z,37.05
2022-12-05T20:38:58.727Z,37.20
2022-12-05T20:41:25.899Z,45.88
2022-12-05T20:43:55.852Z,44.55
2022-12-05T20:46:23.368Z,39.75
2022-12-05T20:48:50.897Z,38.30
2022-12-05T20:51:20.334Z,39.53
2022-12-05T20:53:47.114Z,45.85
2022-12-05T20:56:21.928Z,40.75
2022-12-05T20:58:51.178Z,33.85
2022-12-05T21:01:19.767Z,36.30
2022-12-05T21:03:49.552Z,39.50
2022-12-05T21:06:20.209Z,27.63
2022-12-05T21:08:46.643Z,29.27
2022-12-05T21:11:14.010Z,32.53
2022-12-05T21:13:41.366Z,34.50
2022-12-05T21:16:12.520Z,34.97
2022-12-05T21:18:39.834Z,32.50
2022-12-05T21:21:11.100Z,30.10
2022-12-05T21:23:37.489Z,29.02
2022-12-05T21:26:07.438Z,36.90
2022-12-05T21:28:34.808Z,35.53
2022-12-05T21:31:16.863Z,32.22
2022-12-05T21:33:47.425Z,31.75
2022-12-05T21:36:14.020Z,30.40
2022-12-05T21:38:40.423Z,35.55
2022-12-05T21:41:06.873Z,30.83
2022-12-05T21:43:34.806Z,33.28
2022-12-05T21:46:01.406Z,37.50
2022-12-05T21:48:28.183Z,36.95
2022-12-05T21:50:54.800Z,32.47
2022-12-05T21:53:21.644Z,43.75
2022-12-05T21:55:48.469Z,31.80
2022-12-05T21:58:14.891Z,32.35
2022-12-05T22:00:42.605Z,36.58
2022-12-05T22:03:14.706Z,31.50
2022-12-05T22:05:41.465Z,36.22
2022-12-05T22:08:08.168Z,36.75
2022-12-05T22:10:35.140Z,27.70
2022-12-05T22:13:02.739Z,33.05
2022-12-05T22:15:29.294Z,37.38
2022-12-05T22:17:55.716Z,35.13
2022-12-05T22:20:22.372Z,31.63
2022-12-05T22:22:48.895Z,36.80
2022-12-05T22:25:15.451Z,32.28
2022-12-05T22:27:41.866Z,32.67
2022-12-05T22:30:08.855Z,30.77
2022-12-05T22:32:35.525Z,30.52
2022-12-05T22:35:04.229Z,33.45
2022-12-05T22:37:31.520Z,34.20
2022-12-05T22:39:58.776Z,34.13
2022-12-05T22:42:28.435Z,35.03
2022-12-05T22:44:54.927Z,30.95
2022-12-05T22:47:21.466Z,29.73
2022-12-05T22:49:47.912Z,31.95
2022-12-05T22:52:15.323Z,31.63
2022-12-05T22:54:41.872Z,31.67
2022-12-05T22:57:08.339Z,32.97
2022-12-05T22:59:35.036Z,35.45
2022-12-05T23:02:01.666Z,30.70
2022-12-05T23:04:28.255Z,28.33
2022-12-05T23:06:54.759Z,30.85
2022-12-05T23:09:21.341Z,27.77
2022-12-05T23:11:50.146Z,30.75
2022-12-05T23:14:16.568Z,27.90
2022-12-05T23:16:43.095Z,27.00
2022-12-05T23:19:09.652Z,25.33
2022-12-05T23:21:40.635Z,28.33
2022-12-05T23:24:10.167Z,33.28
2022-12-05T23:26:44.994Z,31.30
2022-12-05T23:29:13.267Z,25.75
2022-12-05T23:31:41.011Z,33.97
2022-12-05T23:34:08.096Z,28.92
2022-12-05T23:36:34.838Z,32.33
2022-12-05T23:39:01.788Z,62.83
2022-12-05T23:41:28.449Z,146.07
2022-12-05T23:43:55.742Z,52.22
2022-12-05T23:46:26.512Z,24.85
2022-12-05T23:48:53.603Z,61.80
2022-12-05T23:51:22.527Z,37.78
2022-12-05T23:53:53.413Z,97.57
2022-12-05T23:56:22.348Z,25.45
2022-12-05T23:58:48.835Z,27.25
